Terminal Aerodrome Forecast
Issued by NWS Portland, ME

Home | Current Version | Previous Version | Text Only | Print | Product List | Glossary On
Versions: 1 2 3 4 5 6 7 8 9 10 11 12 13 14 15 16 17 18 19 20 21 22 23 24 25 26 27 28 29 30
921
FTUS41 KGYX 251303 AAB
TAFPWM
TAF AMD
KPWM 251303Z 2513/2612 18004KT 3SM BR OVC002
      TEMPO 2513/2514 P6SM NSW SCT002 BKN045
     FM251400 18012KT P6SM SCT045=

USA.gov is the U.S. government's official web portal to all federal, state and local government web resources and services.